Accueil
METAR-TAF:

METAR-TAF

Aéroports :

Djeddah, Arabie saoudite

Aéroport international Roi-Abdelaziz

latitude: 21-42N, longitude: 039-11E, altitude: 15 m

Observation

Le bulletin a été fait il y a 45 minutes, à 22:00 UTC
Vent 4 kt de nord/nord-est
Température 25°C
Humidité 61%
Pression 1007 hPa
Visibilité 10 km ou plus
pas de nuages en-dessous de 1500 mètres et pas de cumulonimbus.

METAR: OEJN 242200Z 02004KT CAVOK 25/17 Q1007 NOSIG

Heure: 01:45 (22:45 UTC)

Prévision

Le bulletin a été fait il y a 5 heures et 45 minutes, à 17:00 UTC
Prévision valable du 24 à 18 UTC au 25 à 24 UTC
Vent 8 kt de nord/nord-est
Visibilité: 7000 m
Quelques nuages à une hauteur de 4000 ft
Evoluant progressivement
du 25 à 00 UTC au 25 à 02 UTC
Vent 6 kt de est
Evoluant progressivement
du 25 à 05 UTC au 25 à 07 UTC
Vent 12 kt de ouest/sud-ouest

TAF: OEJN 241700Z 2418/2524 03008KT 7000 FEW040 BECMG 2500/2502 09006KT BECMG 2505/2507 24012KT

Observations et prévisions météorologiques de plus de 4000 aéroports (messages METAR et TAF).

Les stations disponibles sont représentées par des disques jaunes et rouges sur la carte.

Passer la souris dessus pour voir le nom de la station.

Cliquer dessus pour voir les observations et prévisions météorologiques.

Pour changer de carte: cliquez sur les boutons verts avec une croix noire pour zoomer, sur le bouton vert avec un tiret pour effectuer un zoom arrière, ou sur les flèches vertes pour les cartes adjacentes.


METAR-TAF: